TFM - Tactical Decision Aid
ID: Runway Winds: CIG/VIS Threshold:

KLAX - Los Angeles Intl, CA, US

Updated at: 1811 UTC 19 Aug 2019
Latest TAF at: 1746 UTC 19 Aug 2019

TAF Board

Time1753Z 19/19Z 19/20Z 19/21Z 19/22Z 19/23Z 20/00Z 20/01Z 20/02Z 20/03Z 20/04Z 20/05Z 20/06Z 20/07Z>>
Type OBS PRVL PRVL PRVL PRVL PRVL PRVL PRVL PRVL PRVL PRVL PRVL PRVL PRVL
VIS 8 >6 >6 >6 >6 >6 >6 >6 >6 >6 >6 >6 >6 >6
CIG -- -- -- -- -- -- -- -- -- -- -- -- -- --
Cover SCT SCT SKC SKC SKC SKC SKC SKC SKC SKC SKC SKC SKC SKC
FltCat VFR VFR VFR VFR VFR VFR VFR VFR VFR VFR VFR VFR VFR VFR
WX -- -- -- -- -- -- -- -- -- -- -- -- -- --
WDir VRB VRB 260 260 260 260 260 260 260 260 260 260 260 260
WSpd 3 3 12 12 12 12 12 12 12 12 6 6 6 6
WGst -- -- -- -- -- -- -- -- -- -- -- -- -- --

TDA Impact Legend

  None Marginal Slight Moderate High
Visibility (sm) >5 3≤X≤5 1≤X<3 0.5≤X<1 <0.5
Ceiling (100 ft) >30 10≤X≤30 4≤X<10 2≤X<4 <2
Wind Speed (kt) <15 15≤X<25 25≤X<30 ≥30
Wind Gust (kt) <15 15≤X<25 25≤X<35 ≥35
Weather No Wx Reported VCTS -TS,-FZRA TS,FZRA +TS,+FZRA
TAF
KLAX 191746Z 1918/2024 VRB03KT P6SM SCT019
  FM192000 26012KT P6SM SKC
  FM200400 26006KT P6SM SKC
  FM201000 VRB03KT P6SM BKN007
  FM201700 26006KT P6SM FEW010
  FM202000 26012KT P6SM SKC


METAR
KLAX 191753Z VRB03KT 8SM SCT023 24/16 A2998 RMK AO2 SLP150 T02390161 10244 20194 52004
KLAX 191748Z 24005KT 8SM SCT023 23/16 A2998 RMK AO2
KLAX 191653Z VRB03KT 7SM OVC019 22/16 A2998 RMK AO2 SLP149 T02220161
KLAX 191553Z 13005KT 7SM OVC017 21/16 A2997 RMK AO2 SLP147 T02060156
KLAX 191521Z VRB04KT 7SM OVC016 21/16 A2997 RMK AO2 T02060156 $
KLAX 191453Z 07003KT 7SM OVC014 20/16 A2997 RMK AO2 SLP146 T02000156 51009 /

Radar Display
Forecast Discussion